In Rescue
 
Open Full Screen Window  High Contrast Mode
November 29, 2022 9:03 AM CST
Weather Information
Wind Direction
  ---
Wind Speed
  00 kt (0 mph)
Wind Gust
  00 kt (0 mph)
Altimeter
29.70 in
Visibility
10 SM
Temperature
-04° C
25° F
Dewpoint
-10° C
14° F
Humidity
63%
1hr Rain Fall
00.00 in.
24hr Rain Fall
00.02 in.
Sky Condition
Clear
VFR

METAR KAIT 291503Z AUTO 00000KT 10SM CLR M04/M10 A2970 RMK AO2

FAA Disclaimer: The data displayed is for advisory purposes only and is not to be used for flight planning or operations.